createdAt,value
2022-09-28T00:00:41.408Z,84.86
2022-09-28T00:03:12.550Z,85.40
2022-09-28T00:05:42.998Z,85.85
2022-09-28T00:08:14.109Z,86.54
2022-09-28T00:10:45.660Z,85.98
2022-09-28T00:13:16.016Z,86.21
2022-09-28T00:15:46.353Z,86.37
2022-09-28T00:18:16.672Z,86.56
2022-09-28T00:20:47.023Z,86.20
2022-09-28T00:23:17.456Z,86.65
2022-09-28T00:25:48.306Z,86.72
2022-09-28T00:28:18.609Z,86.75
2022-09-28T00:30:49.086Z,86.68
2022-09-28T00:33:19.459Z,86.79
2022-09-28T00:36:00.094Z,86.78
2022-09-28T00:38:31.097Z,86.49
2022-09-28T00:41:01.527Z,86.87
2022-09-28T00:43:32.012Z,86.97
2022-09-28T00:46:05.473Z,87.12
2022-09-28T00:48:39.578Z,86.84
2022-09-28T00:51:13.433Z,86.62
2022-09-28T00:53:46.035Z,86.43
2022-09-28T00:56:19.474Z,86.09
2022-09-28T00:58:53.346Z,86.36
2022-09-28T01:01:23.952Z,86.53
2022-09-28T01:03:54.774Z,86.46
2022-09-28T01:06:28.890Z,85.99
2022-09-28T01:09:02.948Z,85.92
2022-09-28T01:11:35.787Z,85.78
2022-09-28T01:14:09.389Z,85.80
2022-09-28T01:17:07.073Z,86.01
2022-09-28T01:19:40.536Z,86.14
2022-09-28T01:22:16.849Z,85.97
2022-09-28T01:24:49.372Z,86.31
2022-09-28T01:27:39.629Z,86.02
2022-09-28T01:30:13.415Z,85.90
2022-09-28T01:32:58.765Z,85.67
2022-09-28T01:35:32.594Z,85.64
2022-09-28T01:38:12.009Z,85.89
2022-09-28T01:40:42.885Z,85.81
2022-09-28T01:43:16.295Z,85.74
2022-09-28T01:45:49.947Z,85.51
2022-09-28T01:48:28.829Z,85.41
2022-09-28T01:51:02.392Z,85.52
2022-09-28T01:53:47.793Z,85.35
2022-09-28T01:56:27.003Z,85.41
2022-09-28T01:59:00.745Z,85.59
2022-09-28T02:01:34.131Z,85.27
2022-09-28T02:04:10.203Z,85.02
2022-09-28T02:06:49.490Z,84.74
2022-09-28T02:09:27.687Z,84.95
2022-09-28T02:12:01.283Z,84.86
2022-09-28T02:14:33.581Z,84.91
2022-09-28T02:17:04.786Z,85.11
2022-09-28T02:19:36.354Z,84.87
2022-09-28T02:22:27.944Z,84.32
2022-09-28T02:25:16.137Z,84.30
2022-09-28T02:27:52.251Z,84.42
2022-09-28T02:30:22.799Z,84.38
2022-09-28T02:32:56.225Z,84.80
2022-09-28T02:35:26.757Z,84.59
2022-09-28T02:37:57.472Z,84.69
2022-09-28T02:40:33.957Z,84.59
2022-09-28T02:43:21.913Z,84.88
2022-09-28T02:45:55.380Z,84.95
2022-09-28T02:48:43.056Z,85.51
2022-09-28T02:51:29.669Z,85.58
2022-09-28T02:54:24.484Z,85.24
2022-09-28T02:57:12.825Z,85.08
2022-09-28T02:59:46.197Z,85.32
2022-09-28T03:02:22.284Z,85.83
2022-09-28T03:05:16.850Z,85.74
2022-09-28T03:08:02.368Z,85.84
2022-09-28T03:10:41.364Z,86.09
2022-09-28T03:13:13.671Z,86.35
2022-09-28T03:15:48.513Z,86.30
2022-09-28T03:18:17.493Z,86.22
2022-09-28T03:20:49.486Z,86.08
2022-09-28T03:23:24.753Z,86.12
2022-09-28T03:25:51.775Z,86.31
2022-09-28T03:28:22.614Z,86.33
2022-09-28T03:30:53.380Z,86.67
2022-09-28T03:33:24.042Z,86.60
2022-09-28T03:35:54.780Z,86.69
2022-09-28T03:38:25.155Z,86.90
2022-09-28T03:40:56.940Z,86.78
2022-09-28T03:43:28.676Z,86.96
2022-09-28T03:46:01.143Z,87.01
2022-09-28T03:48:33.300Z,86.97
2022-09-28T03:51:06.900Z,87.11
2022-09-28T03:53:38.198Z,86.81
2022-09-28T03:56:12.077Z,86.97
2022-09-28T03:58:43.031Z,86.88
2022-09-28T04:01:17.917Z,86.83
2022-09-28T04:03:50.727Z,87.11
2022-09-28T04:06:20.958Z,86.97
2022-09-28T04:08:51.340Z,87.31
2022-09-28T04:11:21.799Z,87.35
2022-09-28T04:13:52.237Z,87.21
2022-09-28T04:16:22.533Z,87.30
2022-09-28T04:18:52.973Z,87.42
2022-09-28T04:21:23.430Z,87.51
2022-09-28T04:23:53.890Z,87.47
2022-09-28T04:26:26.196Z,87.30
2022-09-28T04:29:14.226Z,86.85
2022-09-28T04:31:47.776Z,86.59
2022-09-28T04:34:20.539Z,86.65
2022-09-28T04:36:51.178Z,86.61
2022-09-28T04:39:21.563Z,86.48
2022-09-28T04:41:51.908Z,86.37
2022-09-28T04:44:22.205Z,86.31
2022-09-28T04:46:52.741Z,86.35
2022-09-28T04:49:24.921Z,86.00
2022-09-28T04:51:55.196Z,86.16
2022-09-28T04:54:25.517Z,86.44
2022-09-28T04:56:55.941Z,86.54
2022-09-28T04:59:26.332Z,86.31
2022-09-28T05:01:56.679Z,86.78
2022-09-28T05:04:28.163Z,86.78
2022-09-28T05:06:59.185Z,86.72
2022-09-28T05:09:29.579Z,86.82
2022-09-28T05:12:00.182Z,86.89
2022-09-28T05:14:30.562Z,86.63
2022-09-28T05:17:01.085Z,86.42
2022-09-28T05:19:31.987Z,86.65
2022-09-28T05:22:04.457Z,86.52
2022-09-28T05:24:34.969Z,86.42
2022-09-28T05:27:05.635Z,86.49
2022-09-28T05:29:35.991Z,86.60
2022-09-28T05:32:06.463Z,86.83
2022-09-28T05:34:36.932Z,86.57
2022-09-28T05:37:07.287Z,86.63
2022-09-28T05:39:37.677Z,86.32
2022-09-28T05:42:08.040Z,86.53
2022-09-28T05:44:38.471Z,86.28
2022-09-28T05:47:08.843Z,86.36
2022-09-28T05:49:39.237Z,86.40
2022-09-28T05:52:09.602Z,86.53
2022-09-28T05:54:39.991Z,86.60
2022-09-28T05:57:10.646Z,86.54
2022-09-28T05:59:41.486Z,86.11
2022-09-28T06:02:12.163Z,86.14
2022-09-28T06:04:42.576Z,86.27
2022-09-28T06:07:12.953Z,86.21
2022-09-28T06:09:43.439Z,86.40
2022-09-28T06:12:15.456Z,86.07
2022-09-28T06:14:46.667Z,86.08
2022-09-28T06:17:16.972Z,85.81
2022-09-28T06:19:47.481Z,85.76
2022-09-28T06:22:17.947Z,85.63
2022-09-28T06:24:48.366Z,85.57
2022-09-28T06:27:18.813Z,85.80
2022-09-28T06:29:49.205Z,85.68
2022-09-28T06:32:19.676Z,85.99
2022-09-28T06:34:54.091Z,86.15
2022-09-28T06:37:22.455Z,85.76
2022-09-28T06:39:54.290Z,85.75
2022-09-28T06:42:24.632Z,85.94
2022-09-28T06:44:55.199Z,85.82
2022-09-28T06:47:25.689Z,85.57
2022-09-28T06:49:56.172Z,85.50
2022-09-28T06:52:26.698Z,85.47
2022-09-28T06:54:57.011Z,85.43
2022-09-28T06:57:27.482Z,85.54
2022-09-28T06:59:57.861Z,85.59
2022-09-28T07:02:28.395Z,85.58
2022-09-28T07:04:59.352Z,85.63
2022-09-28T07:07:31.211Z,85.27
2022-09-28T07:10:01.642Z,85.06
2022-09-28T07:12:32.276Z,85.44
2022-09-28T07:15:02.625Z,85.82
2022-09-28T07:17:42.013Z,85.15
2022-09-28T07:20:16.475Z,84.44
2022-09-28T07:22:43.441Z,84.95
2022-09-28T07:25:11.297Z,85.16
2022-09-28T07:27:41.610Z,84.63
2022-09-28T07:30:12.778Z,84.65
2022-09-28T07:32:44.918Z,84.38
2022-09-28T07:35:15.664Z,84.33
2022-09-28T07:37:45.975Z,85.10
2022-09-28T07:40:34.259Z,84.13
2022-09-28T07:43:07.889Z,83.98
2022-09-28T07:45:38.611Z,82.95
2022-09-28T07:48:09.087Z,81.96
2022-09-28T07:50:39.425Z,81.66
2022-09-28T07:53:10.000Z,82.08
2022-09-28T07:55:40.401Z,81.09
2022-09-28T07:58:10.893Z,81.05
2022-09-28T08:00:41.305Z,80.27
2022-09-28T08:03:11.684Z,80.31
2022-09-28T08:05:42.887Z,80.13
2022-09-28T08:08:13.291Z,79.41
2022-09-28T08:10:47.350Z,79.44
2022-09-28T08:13:18.130Z,78.65
2022-09-28T08:15:56.303Z,78.25
2022-09-28T08:18:26.725Z,78.42
2022-09-28T08:21:15.332Z,78.61
2022-09-28T08:23:45.719Z,78.66
2022-09-28T08:26:16.892Z,77.08
2022-09-28T08:28:47.901Z,76.25
2022-09-28T08:31:18.793Z,76.17
2022-09-28T08:33:51.010Z,75.81
2022-09-28T08:36:21.748Z,75.38
2022-09-28T08:38:52.432Z,75.84
2022-09-28T08:41:39.010Z,76.33
2022-09-28T08:44:26.906Z,75.46
2022-09-28T08:47:00.371Z,73.87
2022-09-28T08:49:33.987Z,74.15
2022-09-28T08:52:17.457Z,74.13
2022-09-28T08:54:56.852Z,73.72
2022-09-28T08:57:30.299Z,72.45
2022-09-28T09:00:04.194Z,73.14
2022-09-28T09:02:39.691Z,72.83
2022-09-28T09:05:15.675Z,73.69
2022-09-28T09:07:54.968Z,73.21
2022-09-28T09:10:46.563Z,73.09
2022-09-28T09:13:32.310Z,72.94
2022-09-28T09:16:29.894Z,73.24
2022-09-28T09:19:06.253Z,71.75
2022-09-28T09:21:44.888Z,71.41
2022-09-28T09:24:27.603Z,70.91
2022-09-28T09:27:03.581Z,70.79
2022-09-28T09:29:58.537Z,71.43
2022-09-28T09:32:37.034Z,70.90
2022-09-28T09:35:16.489Z,70.47
2022-09-28T09:38:06.322Z,70.59
2022-09-28T09:41:00.692Z,70.46
2022-09-28T09:43:40.174Z,70.25
2022-09-28T09:46:26.068Z,70.60
2022-09-28T09:49:08.862Z,70.65
2022-09-28T09:51:46.442Z,69.53
2022-09-28T09:54:38.298Z,70.76
2022-09-28T09:57:17.992Z,67.56
2022-09-28T09:59:49.141Z,66.61
2022-09-28T10:02:31.733Z,65.16
2022-09-28T10:05:19.961Z,65.85
2022-09-28T10:08:11.741Z,65.24
2022-09-28T10:10:51.607Z,65.39
2022-09-28T10:13:23.418Z,65.83
2022-09-28T10:15:54.070Z,66.97
2022-09-28T10:18:24.543Z,67.82
2022-09-28T10:20:54.907Z,67.66
2022-09-28T10:23:34.449Z,67.24
2022-09-28T10:26:08.112Z,67.34
2022-09-28T10:28:50.569Z,67.67
2022-09-28T10:31:40.464Z,66.95
2022-09-28T10:34:15.528Z,67.18
2022-09-28T10:36:51.881Z,67.83
2022-09-28T10:39:41.114Z,67.32
2022-09-28T10:42:14.974Z,66.32
2022-09-28T10:44:51.455Z,66.34
2022-09-28T10:47:24.861Z,66.49
2022-09-28T10:49:56.827Z,66.86
2022-09-28T10:52:36.269Z,67.98
2022-09-28T10:55:32.583Z,68.19
2022-09-28T10:58:22.936Z,68.59
2022-09-28T11:00:55.418Z,67.97
2022-09-28T11:03:28.587Z,68.88
2022-09-28T11:06:05.242Z,69.90
2022-09-28T11:08:44.664Z,71.61
2022-09-28T11:11:17.002Z,72.13
2022-09-28T11:13:50.684Z,72.51
2022-09-28T11:16:25.449Z,72.40
2022-09-28T11:18:58.248Z,73.04
2022-09-28T11:21:34.398Z,72.47
2022-09-28T11:24:22.985Z,72.01
2022-09-28T11:27:00.008Z,71.86
2022-09-28T11:29:48.418Z,73.33
2022-09-28T11:32:19.076Z,73.14
2022-09-28T11:34:59.519Z,72.59
2022-09-28T11:37:36.978Z,72.39
2022-09-28T11:40:10.544Z,71.76
2022-09-28T11:43:02.285Z,70.39
2022-09-28T11:45:50.681Z,67.51
2022-09-28T11:48:26.703Z,68.29
2022-09-28T11:51:03.635Z,67.54
2022-09-28T11:53:42.912Z,68.63
2022-09-28T11:56:19.724Z,69.87
2022-09-28T11:58:55.907Z,70.75
2022-09-28T12:01:41.024Z,70.23
2022-09-28T12:04:17.433Z,70.88
2022-09-28T12:07:06.227Z,69.94
2022-09-28T12:09:39.533Z,68.78
2022-09-28T12:12:15.961Z,69.03
2022-09-28T12:14:48.027Z,69.55
2022-09-28T12:17:22.034Z,69.69
2022-09-28T12:20:01.195Z,69.41
2022-09-28T12:22:34.699Z,68.43
2022-09-28T12:25:08.149Z,69.56
2022-09-28T12:27:58.402Z,69.35
2022-09-28T12:30:31.947Z,67.83
2022-09-28T12:33:16.163Z,68.48
2022-09-28T12:36:04.626Z,68.42
2022-09-28T12:39:17.703Z,68.32
2022-09-28T12:41:50.102Z,67.24
2022-09-28T12:44:35.896Z,67.90
2022-09-28T12:47:44.216Z,67.44
2022-09-28T12:50:45.700Z,66.21
2022-09-28T12:53:24.053Z,66.94
2022-09-28T12:56:16.771Z,66.33
2022-09-28T12:58:53.846Z,65.62
2022-09-28T13:01:33.202Z,65.92
2022-09-28T13:04:13.555Z,66.31
2022-09-28T13:06:49.943Z,66.01
2022-09-28T13:09:23.967Z,66.33
2022-09-28T13:12:06.698Z,65.56
2022-09-28T13:14:55.301Z,65.57
2022-09-28T13:17:43.630Z,64.83
2022-09-28T13:20:44.787Z,65.07
2022-09-28T13:23:18.254Z,65.30
2022-09-28T13:25:57.224Z,65.58
2022-09-28T13:28:29.870Z,63.08
2022-09-28T13:31:02.202Z,63.34
2022-09-28T13:33:38.962Z,63.23
2022-09-28T13:36:30.890Z,63.27
2022-09-28T13:39:02.162Z,64.02
2022-09-28T13:41:38.604Z,62.24
2022-09-28T13:44:16.848Z,61.62
2022-09-28T13:47:04.840Z,60.82
2022-09-28T13:49:52.617Z,61.03
2022-09-28T13:52:57.689Z,62.44
2022-09-28T13:55:52.970Z,59.81
2022-09-28T13:58:28.874Z,60.32
2022-09-28T14:01:08.157Z,60.61
2022-09-28T14:03:57.127Z,59.59
2022-09-28T14:06:34.458Z,60.01
2022-09-28T14:09:25.545Z,60.01
2022-09-28T14:11:58.291Z,60.97
2022-09-28T14:14:34.745Z,59.89
2022-09-28T14:17:27.990Z,61.76
2022-09-28T14:20:07.181Z,61.06
2022-09-28T14:23:16.706Z,62.09
2022-09-28T14:25:49.524Z,61.51
2022-09-28T14:28:40.455Z,61.40
2022-09-28T14:31:16.740Z,61.29
2022-09-28T14:33:50.261Z,61.62
2022-09-28T14:36:25.282Z,61.27
2022-09-28T14:39:13.880Z,61.87
2022-09-28T14:41:44.703Z,61.23
2022-09-28T14:44:19.294Z,61.42
2022-09-28T14:46:49.953Z,59.50
2022-09-28T14:49:24.891Z,60.03
2022-09-28T14:51:58.549Z,60.30
2022-09-28T14:54:33.190Z,61.13
2022-09-28T14:57:15.290Z,61.94
2022-09-28T14:59:46.759Z,63.56
2022-09-28T15:02:23.325Z,64.07
2022-09-28T15:05:03.253Z,63.54
2022-09-28T15:07:49.573Z,64.04
2022-09-28T15:10:35.052Z,63.20
2022-09-28T15:13:08.256Z,63.92
2022-09-28T15:15:41.414Z,64.44
2022-09-28T15:18:27.587Z,64.05
2022-09-28T15:20:59.591Z,63.27
2022-09-28T15:23:40.179Z,63.68
2022-09-28T15:26:22.407Z,65.13
2022-09-28T15:28:52.753Z,63.71
2022-09-28T15:31:26.154Z,63.58
2022-09-28T15:34:15.344Z,64.51
2022-09-28T15:36:47.130Z,64.09
2022-09-28T15:39:23.857Z,65.02
2022-09-28T15:41:54.575Z,65.14
2022-09-28T15:44:33.137Z,64.61
2022-09-28T15:47:19.167Z,64.49
2022-09-28T15:50:09.070Z,66.55
2022-09-28T15:52:46.449Z,67.42
2022-09-28T15:55:34.127Z,68.49
2022-09-28T15:58:17.109Z,68.42
2022-09-28T16:00:49.946Z,68.84
2022-09-28T16:03:28.198Z,69.52
2022-09-28T16:06:03.408Z,70.63
2022-09-28T16:08:45.397Z,70.98
2022-09-28T16:11:31.913Z,71.59
2022-09-28T16:14:08.996Z,72.41
2022-09-28T16:16:50.784Z,73.27
2022-09-28T16:19:27.388Z,73.67
2022-09-28T16:21:59.979Z,74.32
2022-09-28T16:24:36.137Z,75.01
2022-09-28T16:27:25.012Z,75.09
2022-09-28T16:30:15.466Z,75.55
2022-09-28T16:32:49.454Z,76.23
2022-09-28T16:35:28.180Z,76.56
2022-09-28T16:38:05.672Z,77.12
2022-09-28T16:40:38.037Z,77.18
2022-09-28T16:43:10.044Z,77.62
2022-09-28T16:45:40.473Z,77.49
2022-09-28T16:48:19.460Z,77.82
2022-09-28T16:50:49.970Z,78.45
2022-09-28T16:53:40.061Z,78.57
2022-09-28T16:56:11.825Z,78.84
2022-09-28T16:58:42.455Z,78.61
2022-09-28T17:01:14.896Z,78.76
2022-09-28T17:03:46.982Z,78.99
2022-09-28T17:06:19.243Z,78.98
2022-09-28T17:08:49.918Z,79.50
2022-09-28T17:11:24.628Z,79.71
2022-09-28T17:13:55.843Z,79.94
2022-09-28T17:17:02.302Z,80.01
2022-09-28T17:19:02.420Z,80.15
2022-09-28T17:21:32.801Z,80.40
2022-09-28T17:24:03.289Z,80.27
2022-09-28T17:26:35.417Z,80.18
2022-09-28T17:29:07.674Z,80.36
2022-09-28T17:31:38.057Z,80.57
2022-09-28T17:34:08.629Z,80.36
2022-09-28T17:36:41.209Z,80.58
2022-09-28T17:39:14.347Z,80.57
2022-09-28T17:41:45.159Z,80.86
2022-09-28T17:44:15.951Z,80.61
2022-09-28T17:46:49.335Z,80.90
2022-09-28T17:49:19.950Z,80.81
2022-09-28T17:51:50.518Z,80.72
2022-09-28T17:54:22.534Z,80.04
2022-09-28T17:56:53.114Z,79.69
2022-09-28T17:59:23.450Z,79.52
2022-09-28T18:01:53.827Z,79.73
2022-09-28T18:04:50.291Z,79.70
2022-09-28T18:06:56.334Z,80.20
2022-09-28T18:09:26.684Z,79.71
2022-09-28T18:12:00.989Z,79.49
2022-09-28T18:14:31.490Z,79.94
2022-09-28T18:17:01.930Z,80.44
2022-09-28T18:19:32.737Z,80.03
2022-09-28T18:22:03.241Z,79.85
2022-09-28T18:24:33.800Z,79.79
2022-09-28T18:27:04.268Z,80.04
2022-09-28T18:29:34.704Z,80.43
2022-09-28T18:32:05.149Z,80.18
2022-09-28T18:34:39.510Z,80.04
2022-09-28T18:37:10.622Z,80.16
2022-09-28T18:39:41.168Z,80.45
2022-09-28T18:42:11.530Z,80.74
2022-09-28T18:44:42.016Z,80.79
2022-09-28T18:47:15.035Z,80.91
2022-09-28T18:49:46.833Z,80.86
2022-09-28T18:52:17.510Z,81.19
2022-09-28T18:54:49.229Z,81.49
2022-09-28T18:57:19.755Z,81.76
2022-09-28T18:59:50.259Z,81.87
2022-09-28T19:02:20.767Z,82.10
2022-09-28T19:04:51.341Z,81.84
2022-09-28T19:07:21.698Z,82.21
2022-09-28T19:09:53.215Z,82.60
2022-09-28T19:12:24.155Z,82.81
2022-09-28T19:14:54.592Z,82.94
2022-09-28T19:17:25.031Z,82.87
2022-09-28T19:19:55.433Z,82.90
2022-09-28T19:22:25.818Z,83.08
2022-09-28T19:24:56.920Z,83.17
2022-09-28T19:27:27.280Z,83.12
2022-09-28T19:29:57.605Z,83.32
2022-09-28T19:32:29.610Z,83.30
2022-09-28T19:35:00.020Z,82.88
2022-09-28T19:37:30.385Z,83.01
2022-09-28T19:40:00.715Z,83.18
2022-09-28T19:42:31.094Z,83.38
2022-09-28T19:45:01.499Z,83.45
2022-09-28T19:47:32.041Z,83.65
2022-09-28T19:50:03.275Z,83.50
2022-09-28T19:52:33.826Z,83.65
2022-09-28T19:55:04.290Z,83.75
2022-09-28T19:57:35.037Z,83.89
2022-09-28T20:00:06.412Z,83.48
2022-09-28T20:02:36.860Z,83.67
2022-09-28T20:05:07.430Z,83.81
2022-09-28T20:07:39.238Z,83.86
2022-09-28T20:10:11.813Z,83.92
2022-09-28T20:12:43.676Z,84.08
2022-09-28T20:15:14.680Z,84.10
2022-09-28T20:17:44.912Z,83.99
2022-09-28T20:20:15.392Z,84.17
2022-09-28T20:22:45.714Z,84.39
2022-09-28T20:25:16.479Z,84.15
2022-09-28T20:27:47.420Z,84.07
2022-09-28T20:30:18.109Z,84.09
2022-09-28T20:32:49.736Z,83.96
2022-09-28T20:35:32.331Z,83.85
2022-09-28T20:37:52.653Z,83.62
2022-09-28T20:40:23.209Z,83.58
2022-09-28T20:42:53.538Z,83.16
2022-09-28T20:45:24.193Z,83.16
2022-09-28T20:47:54.606Z,83.37
2022-09-28T20:50:25.054Z,83.33
2022-09-28T20:52:55.438Z,83.39
2022-09-28T20:55:25.930Z,83.55
2022-09-28T20:57:57.574Z,83.75
2022-09-28T21:00:28.111Z,83.46
2022-09-28T21:02:58.540Z,83.53
2022-09-28T21:05:36.758Z,83.76
2022-09-28T21:08:07.064Z,83.77
2022-09-28T21:10:37.538Z,83.67
2022-09-28T21:13:08.768Z,83.56
2022-09-28T21:15:39.179Z,84.12
2022-09-28T21:18:09.589Z,84.14
2022-09-28T21:20:45.491Z,84.02
2022-09-28T21:23:16.915Z,84.11
2022-09-28T21:25:47.859Z,84.22
2022-09-28T21:28:18.800Z,83.99
2022-09-28T21:30:52.145Z,83.91
2022-09-28T21:33:22.525Z,84.18
2022-09-28T21:35:53.034Z,84.18
2022-09-28T21:38:23.445Z,84.02
2022-09-28T21:40:57.727Z,83.94
2022-09-28T21:43:29.603Z,83.91
2022-09-28T21:46:00.268Z,84.00
2022-09-28T21:48:31.361Z,84.12
2022-09-28T21:51:06.996Z,84.11
2022-09-28T21:53:38.837Z,84.18
2022-09-28T21:56:11.527Z,83.95
2022-09-28T21:58:42.190Z,83.98
2022-09-28T22:01:20.891Z,83.82
2022-09-28T22:03:54.532Z,83.67
2022-09-28T22:06:30.087Z,83.47
2022-09-28T22:09:00.610Z,83.40
2022-09-28T22:11:31.081Z,83.54
2022-09-28T22:14:01.855Z,83.66
2022-09-28T22:16:32.728Z,83.88
2022-09-28T22:19:03.288Z,83.78
2022-09-28T22:21:34.865Z,83.81
2022-09-28T22:24:07.269Z,83.87
2022-09-28T22:26:39.507Z,84.03
2022-09-28T22:29:10.897Z,83.55
2022-09-28T22:31:42.234Z,84.00
2022-09-28T22:34:12.726Z,83.81
2022-09-28T22:36:43.095Z,84.11
2022-09-28T22:39:14.622Z,84.10
2022-09-28T22:41:44.998Z,84.11
2022-09-28T22:44:15.393Z,83.96
2022-09-28T22:46:46.020Z,84.16
2022-09-28T22:49:17.128Z,84.28
2022-09-28T22:51:47.516Z,84.31
2022-09-28T22:54:17.880Z,84.52
2022-09-28T22:56:48.253Z,84.61
2022-09-28T22:59:18.870Z,84.48
2022-09-28T23:01:49.378Z,83.89
2022-09-28T23:04:20.470Z,84.01
2022-09-28T23:06:50.883Z,84.53
2022-09-28T23:09:21.353Z,84.59
2022-09-28T23:11:51.667Z,84.44
2022-09-28T23:14:22.684Z,84.35
2022-09-28T23:16:52.996Z,84.42
2022-09-28T23:19:23.309Z,84.17
2022-09-28T23:21:54.482Z,84.23
2022-09-28T23:24:24.883Z,84.09
2022-09-28T23:26:55.190Z,84.51
2022-09-28T23:29:25.961Z,84.56
2022-09-28T23:31:56.346Z,84.51
2022-09-28T23:34:26.721Z,84.53
2022-09-28T23:36:57.321Z,84.58
2022-09-28T23:39:27.748Z,84.72
2022-09-28T23:41:58.916Z,84.90
2022-09-28T23:44:29.305Z,84.96
2022-09-28T23:47:00.153Z,85.39
2022-09-28T23:49:30.529Z,85.54
2022-09-28T23:52:01.115Z,85.69
2022-09-28T23:54:31.604Z,85.79
2022-09-28T23:57:01.919Z,85.82
2022-09-28T23:59:32.391Z,85.96
